sensor_id;sensor_type;location;lat;lon;timestamp;P1;durP1;ratioP1;P2;durP2;ratioP2
55409;SDS011;41279;43.546;16.426;2022-12-07T00:01:38;14.88;;;9.23;;
55409;SDS011;41279;43.546;16.426;2022-12-07T00:04:05;16.70;;;9.93;;
55409;SDS011;41279;43.546;16.426;2022-12-07T00:06:36;16.88;;;9.80;;
55409;SDS011;41279;43.546;16.426;2022-12-07T00:09:03;15.48;;;9.10;;
55409;SDS011;41279;43.546;16.426;2022-12-07T00:11:30;16.80;;;10.20;;
55409;SDS011;41279;43.546;16.426;2022-12-07T00:13:59;22.70;;;12.02;;
55409;SDS011;41279;43.546;16.426;2022-12-07T00:16:27;21.40;;;12.02;;
55409;SDS011;41279;43.546;16.426;2022-12-07T00:18:54;19.17;;;9.77;;
55409;SDS011;41279;43.546;16.426;2022-12-07T00:21:24;14.23;;;9.15;;
55409;SDS011;41279;43.546;16.426;2022-12-07T00:23:52;16.13;;;9.38;;
55409;SDS011;41279;43.546;16.426;2022-12-07T00:26:19;17.15;;;10.05;;
55409;SDS011;41279;43.546;16.426;2022-12-07T00:28:50;15.30;;;8.95;;
55409;SDS011;41279;43.546;16.426;2022-12-07T00:31:18;14.60;;;8.80;;
55409;SDS011;41279;43.546;16.426;2022-12-07T00:33:46;17.65;;;8.70;;
55409;SDS011;41279;43.546;16.426;2022-12-07T00:36:13;19.65;;;9.98;;
55409;SDS011;41279;43.546;16.426;2022-12-07T00:38:40;15.93;;;9.85;;
55409;SDS011;41279;43.546;16.426;2022-12-07T00:41:08;18.95;;;9.38;;
55409;SDS011;41279;43.546;16.426;2022-12-07T00:43:39;11.73;;;7.28;;
55409;SDS011;41279;43.546;16.426;2022-12-07T00:46:06;14.07;;;8.00;;
55409;SDS011;41279;43.546;16.426;2022-12-07T00:48:32;14.75;;;9.30;;
55409;SDS011;41279;43.546;16.426;2022-12-07T00:50:58;14.02;;;8.57;;
55409;SDS011;41279;43.546;16.426;2022-12-07T00:53:24;14.95;;;8.07;;
55409;SDS011;41279;43.546;16.426;2022-12-07T00:55:50;14.82;;;7.95;;
55409;SDS011;41279;43.546;16.426;2022-12-07T00:58:15;11.88;;;6.07;;
55409;SDS011;41279;43.546;16.426;2022-12-07T01:00:41;12.93;;;6.53;;
55409;SDS011;41279;43.546;16.426;2022-12-07T01:03:08;14.13;;;7.05;;
55409;SDS011;41279;43.546;16.426;2022-12-07T01:05:35;14.32;;;7.13;;
55409;SDS011;41279;43.546;16.426;2022-12-07T01:08:01;13.45;;;7.00;;
55409;SDS011;41279;43.546;16.426;2022-12-07T01:10:27;14.73;;;6.97;;
55409;SDS011;41279;43.546;16.426;2022-12-07T01:12:52;13.07;;;6.45;;
55409;SDS011;41279;43.546;16.426;2022-12-07T01:15:18;14.02;;;6.15;;
55409;SDS011;41279;43.546;16.426;2022-12-07T01:17:44;10.88;;;5.68;;
55409;SDS011;41279;43.546;16.426;2022-12-07T01:20:09;12.77;;;6.25;;
55409;SDS011;41279;43.546;16.426;2022-12-07T01:22:36;11.60;;;6.07;;
55409;SDS011;41279;43.546;16.426;2022-12-07T01:25:03;11.80;;;6.20;;
55409;SDS011;41279;43.546;16.426;2022-12-07T01:27:29;14.00;;;6.75;;
55409;SDS011;41279;43.546;16.426;2022-12-07T01:29:54;11.30;;;6.43;;
55409;SDS011;41279;43.546;16.426;2022-12-07T01:32:19;13.10;;;6.80;;
55409;SDS011;41279;43.546;16.426;2022-12-07T01:34:47;13.93;;;7.13;;
55409;SDS011;41279;43.546;16.426;2022-12-07T01:37:13;13.52;;;6.82;;
55409;SDS011;41279;43.546;16.426;2022-12-07T01:39:38;12.43;;;6.72;;
55409;SDS011;41279;43.546;16.426;2022-12-07T01:42:03;12.25;;;6.45;;
55409;SDS011;41279;43.546;16.426;2022-12-07T01:44:29;13.02;;;6.55;;
55409;SDS011;41279;43.546;16.426;2022-12-07T01:47:00;12.23;;;6.78;;
55409;SDS011;41279;43.546;16.426;2022-12-07T01:49:35;11.95;;;6.90;;
55409;SDS011;41279;43.546;16.426;2022-12-07T01:54:57;12.32;;;8.00;;
55409;SDS011;41279;43.546;16.426;2022-12-07T01:57:26;15.63;;;8.68;;
55409;SDS011;41279;43.546;16.426;2022-12-07T01:59:52;14.27;;;8.30;;
55409;SDS011;41279;43.546;16.426;2022-12-07T02:02:27;13.23;;;8.40;;
55409;SDS011;41279;43.546;16.426;2022-12-07T02:04:58;15.63;;;7.63;;
55409;SDS011;41279;43.546;16.426;2022-12-07T02:07:24;17.85;;;8.60;;
55409;SDS011;41279;43.546;16.426;2022-12-07T02:09:51;16.77;;;8.85;;
55409;SDS011;41279;43.546;16.426;2022-12-07T02:12:17;14.25;;;9.60;;
55409;SDS011;41279;43.546;16.426;2022-12-07T02:14:43;17.20;;;9.77;;
55409;SDS011;41279;43.546;16.426;2022-12-07T02:17:22;19.67;;;9.70;;
55409;SDS011;41279;43.546;16.426;2022-12-07T02:25:30;13.32;;;9.15;;
55409;SDS011;41279;43.546;16.426;2022-12-07T02:28:12;13.27;;;8.15;;
55409;SDS011;41279;43.546;16.426;2022-12-07T02:31:10;14.02;;;8.40;;
55409;SDS011;41279;43.546;16.426;2022-12-07T02:33:41;13.13;;;7.47;;
55409;SDS011;41279;43.546;16.426;2022-12-07T02:36:17;12.35;;;7.13;;
55409;SDS011;41279;43.546;16.426;2022-12-07T02:39:09;11.98;;;7.05;;
55409;SDS011;41279;43.546;16.426;2022-12-07T02:41:57;10.82;;;6.45;;
55409;SDS011;41279;43.546;16.426;2022-12-07T02:44:28;12.45;;;6.43;;
55409;SDS011;41279;43.546;16.426;2022-12-07T02:46:57;11.68;;;6.78;;
55409;SDS011;41279;43.546;16.426;2022-12-07T02:49:27;11.25;;;6.20;;
55409;SDS011;41279;43.546;16.426;2022-12-07T02:51:54;10.55;;;5.38;;
55409;SDS011;41279;43.546;16.426;2022-12-07T02:54:20;11.35;;;4.40;;
55409;SDS011;41279;43.546;16.426;2022-12-07T03:10:09;6.40;;;3.80;;
55409;SDS011;41279;43.546;16.426;2022-12-07T03:12:44;7.75;;;3.95;;
55409;SDS011;41279;43.546;16.426;2022-12-07T03:15:16;8.10;;;4.10;;
55409;SDS011;41279;43.546;16.426;2022-12-07T03:17:48;8.55;;;4.28;;
55409;SDS011;41279;43.546;16.426;2022-12-07T03:20:16;10.82;;;4.70;;
55409;SDS011;41279;43.546;16.426;2022-12-07T03:22:44;12.63;;;4.60;;
55409;SDS011;41279;43.546;16.426;2022-12-07T03:25:12;9.60;;;4.30;;
55409;SDS011;41279;43.546;16.426;2022-12-07T03:30:13;12.00;;;5.55;;
55409;SDS011;41279;43.546;16.426;2022-12-07T03:32:43;11.50;;;4.72;;
55409;SDS011;41279;43.546;16.426;2022-12-07T03:35:17;9.88;;;4.63;;
55409;SDS011;41279;43.546;16.426;2022-12-07T03:40:37;13.35;;;4.85;;
55409;SDS011;41279;43.546;16.426;2022-12-07T03:43:25;11.65;;;4.45;;
55409;SDS011;41279;43.546;16.426;2022-12-07T03:45:58;13.50;;;4.57;;
55409;SDS011;41279;43.546;16.426;2022-12-07T03:51:27;11.23;;;5.50;;
55409;SDS011;41279;43.546;16.426;2022-12-07T03:54:05;16.38;;;5.80;;
55409;SDS011;41279;43.546;16.426;2022-12-07T03:56:36;14.05;;;6.32;;
55409;SDS011;41279;43.546;16.426;2022-12-07T04:05:45;12.25;;;5.40;;
55409;SDS011;41279;43.546;16.426;2022-12-07T04:08:11;11.85;;;5.57;;
55409;SDS011;41279;43.546;16.426;2022-12-07T04:10:36;16.10;;;7.53;;
55409;SDS011;41279;43.546;16.426;2022-12-07T04:13:01;16.45;;;6.93;;
55409;SDS011;41279;43.546;16.426;2022-12-07T04:15:27;18.80;;;6.70;;
55409;SDS011;41279;43.546;16.426;2022-12-07T04:17:53;16.88;;;7.30;;
55409;SDS011;41279;43.546;16.426;2022-12-07T04:20:19;15.02;;;7.63;;
55409;SDS011;41279;43.546;16.426;2022-12-07T04:22:45;16.05;;;7.20;;
55409;SDS011;41279;43.546;16.426;2022-12-07T04:25:11;13.88;;;6.53;;
55409;SDS011;41279;43.546;16.426;2022-12-07T04:27:36;18.88;;;7.30;;
55409;SDS011;41279;43.546;16.426;2022-12-07T04:30:02;17.15;;;7.47;;
55409;SDS011;41279;43.546;16.426;2022-12-07T04:32:28;14.70;;;6.90;;
55409;SDS011;41279;43.546;16.426;2022-12-07T04:34:53;19.13;;;7.95;;
55409;SDS011;41279;43.546;16.426;2022-12-07T04:37:18;14.02;;;7.40;;
55409;SDS011;41279;43.546;16.426;2022-12-07T04:39:44;16.05;;;7.95;;
55409;SDS011;41279;43.546;16.426;2022-12-07T04:42:12;12.70;;;7.60;;
55409;SDS011;41279;43.546;16.426;2022-12-07T04:44:40;17.80;;;7.55;;
55409;SDS011;41279;43.546;16.426;2022-12-07T04:47:05;22.42;;;8.23;;
55409;SDS011;41279;43.546;16.426;2022-12-07T04:49:31;14.55;;;7.70;;
55409;SDS011;41279;43.546;16.426;2022-12-07T04:51:56;15.63;;;7.97;;
55409;SDS011;41279;43.546;16.426;2022-12-07T04:54:21;16.42;;;7.88;;
55409;SDS011;41279;43.546;16.426;2022-12-07T04:56:47;16.00;;;8.10;;
55409;SDS011;41279;43.546;16.426;2022-12-07T04:59:13;19.65;;;8.48;;
55409;SDS011;41279;43.546;16.426;2022-12-07T05:01:39;18.80;;;8.52;;
55409;SDS011;41279;43.546;16.426;2022-12-07T05:04:05;16.58;;;7.93;;
55409;SDS011;41279;43.546;16.426;2022-12-07T05:06:31;20.77;;;9.18;;
55409;SDS011;41279;43.546;16.426;2022-12-07T05:08:56;18.17;;;8.60;;
55409;SDS011;41279;43.546;16.426;2022-12-07T05:11:21;18.15;;;9.10;;
55409;SDS011;41279;43.546;16.426;2022-12-07T05:16:31;22.23;;;9.00;;
55409;SDS011;41279;43.546;16.426;2022-12-07T05:18:56;20.42;;;8.40;;
55409;SDS011;41279;43.546;16.426;2022-12-07T05:21:22;21.17;;;8.60;;
55409;SDS011;41279;43.546;16.426;2022-12-07T05:23:47;18.83;;;8.85;;
55409;SDS011;41279;43.546;16.426;2022-12-07T05:26:13;16.58;;;7.50;;
55409;SDS011;41279;43.546;16.426;2022-12-07T05:28:38;15.77;;;6.57;;
55409;SDS011;41279;43.546;16.426;2022-12-07T05:31:03;20.55;;;7.22;;
55409;SDS011;41279;43.546;16.426;2022-12-07T05:33:29;20.10;;;7.55;;
55409;SDS011;41279;43.546;16.426;2022-12-07T05:35:54;16.65;;;7.53;;
55409;SDS011;41279;43.546;16.426;2022-12-07T05:38:19;16.27;;;7.15;;
55409;SDS011;41279;43.546;16.426;2022-12-07T05:40:45;13.57;;;6.32;;
55409;SDS011;41279;43.546;16.426;2022-12-07T05:43:10;15.27;;;7.50;;
55409;SDS011;41279;43.546;16.426;2022-12-07T05:45:35;17.98;;;7.05;;
55409;SDS011;41279;43.546;16.426;2022-12-07T05:48:01;13.73;;;7.00;;
55409;SDS011;41279;43.546;16.426;2022-12-07T05:50:26;18.60;;;7.60;;
55409;SDS011;41279;43.546;16.426;2022-12-07T05:52:53;16.95;;;8.00;;
55409;SDS011;41279;43.546;16.426;2022-12-07T05:55:18;17.13;;;7.63;;
55409;SDS011;41279;43.546;16.426;2022-12-07T05:57:44;17.38;;;7.70;;
55409;SDS011;41279;43.546;16.426;2022-12-07T06:00:29;18.73;;;7.78;;
55409;SDS011;41279;43.546;16.426;2022-12-07T06:02:54;21.60;;;7.88;;
55409;SDS011;41279;43.546;16.426;2022-12-07T06:05:20;21.30;;;7.75;;
55409;SDS011;41279;43.546;16.426;2022-12-07T06:07:45;20.17;;;8.32;;
55409;SDS011;41279;43.546;16.426;2022-12-07T06:10:10;21.75;;;7.82;;
55409;SDS011;41279;43.546;16.426;2022-12-07T06:12:35;23.23;;;8.50;;
55409;SDS011;41279;43.546;16.426;2022-12-07T06:15:03;19.25;;;8.35;;
55409;SDS011;41279;43.546;16.426;2022-12-07T06:17:29;17.77;;;7.80;;
55409;SDS011;41279;43.546;16.426;2022-12-07T06:19:54;16.20;;;8.70;;
55409;SDS011;41279;43.546;16.426;2022-12-07T06:22:19;20.08;;;9.25;;
55409;SDS011;41279;43.546;16.426;2022-12-07T06:24:45;22.60;;;9.82;;
55409;SDS011;41279;43.546;16.426;2022-12-07T06:27:10;22.75;;;10.57;;
55409;SDS011;41279;43.546;16.426;2022-12-07T06:29:36;20.15;;;9.32;;
55409;SDS011;41279;43.546;16.426;2022-12-07T06:32:01;28.40;;;11.48;;
55409;SDS011;41279;43.546;16.426;2022-12-07T06:34:27;27.70;;;11.65;;
55409;SDS011;41279;43.546;16.426;2022-12-07T06:36:53;28.50;;;11.88;;
55409;SDS011;41279;43.546;16.426;2022-12-07T06:39:21;19.00;;;9.43;;
55409;SDS011;41279;43.546;16.426;2022-12-07T06:41:48;21.88;;;9.88;;
55409;SDS011;41279;43.546;16.426;2022-12-07T06:44:16;19.67;;;8.63;;
55409;SDS011;41279;43.546;16.426;2022-12-07T06:46:42;17.50;;;8.20;;
55409;SDS011;41279;43.546;16.426;2022-12-07T06:49:07;24.00;;;7.80;;
55409;SDS011;41279;43.546;16.426;2022-12-07T06:51:33;17.17;;;6.13;;
55409;SDS011;41279;43.546;16.426;2022-12-07T06:54:01;16.25;;;7.13;;
55409;SDS011;41279;43.546;16.426;2022-12-07T06:56:29;17.45;;;7.47;;
55409;SDS011;41279;43.546;16.426;2022-12-07T06:58:55;24.70;;;8.88;;
55409;SDS011;41279;43.546;16.426;2022-12-07T07:01:20;22.55;;;9.25;;
55409;SDS011;41279;43.546;16.426;2022-12-07T07:03:46;25.88;;;10.05;;
55409;SDS011;41279;43.546;16.426;2022-12-07T07:06:12;23.02;;;8.93;;
55409;SDS011;41279;43.546;16.426;2022-12-07T07:08:38;21.67;;;9.40;;
55409;SDS011;41279;43.546;16.426;2022-12-07T07:11:05;18.02;;;9.50;;
55409;SDS011;41279;43.546;16.426;2022-12-07T07:13:31;27.73;;;10.05;;
55409;SDS011;41279;43.546;16.426;2022-12-07T07:15:56;29.35;;;11.48;;
55409;SDS011;41279;43.546;16.426;2022-12-07T07:18:22;22.13;;;9.80;;
55409;SDS011;41279;43.546;16.426;2022-12-07T07:20:47;23.48;;;10.15;;
55409;SDS011;41279;43.546;16.426;2022-12-07T07:23:13;22.27;;;9.75;;
55409;SDS011;41279;43.546;16.426;2022-12-07T07:25:38;21.75;;;10.52;;
55409;SDS011;41279;43.546;16.426;2022-12-07T07:28:04;25.15;;;10.88;;
55409;SDS011;41279;43.546;16.426;2022-12-07T07:30:30;21.50;;;10.75;;
55409;SDS011;41279;43.546;16.426;2022-12-07T07:32:56;21.52;;;9.77;;
55409;SDS011;41279;43.546;16.426;2022-12-07T07:35:28;17.30;;;9.48;;
55409;SDS011;41279;43.546;16.426;2022-12-07T07:37:55;16.55;;;8.30;;
55409;SDS011;41279;43.546;16.426;2022-12-07T07:40:21;17.58;;;6.93;;
55409;SDS011;41279;43.546;16.426;2022-12-07T07:42:47;13.60;;;6.47;;
55409;SDS011;41279;43.546;16.426;2022-12-07T07:45:13;18.67;;;5.90;;
55409;SDS011;41279;43.546;16.426;2022-12-07T07:47:39;14.02;;;5.60;;
55409;SDS011;41279;43.546;16.426;2022-12-07T07:50:04;12.20;;;5.85;;
55409;SDS011;41279;43.546;16.426;2022-12-07T07:52:30;12.65;;;6.00;;
55409;SDS011;41279;43.546;16.426;2022-12-07T07:54:56;13.52;;;5.30;;
55409;SDS011;41279;43.546;16.426;2022-12-07T07:57:21;14.60;;;5.22;;
55409;SDS011;41279;43.546;16.426;2022-12-07T07:59:46;11.95;;;4.60;;
55409;SDS011;41279;43.546;16.426;2022-12-07T08:02:13;12.02;;;4.70;;
55409;SDS011;41279;43.546;16.426;2022-12-07T08:04:40;12.93;;;6.68;;
55409;SDS011;41279;43.546;16.426;2022-12-07T08:07:05;9.05;;;4.20;;
55409;SDS011;41279;43.546;16.426;2022-12-07T08:09:31;9.18;;;5.50;;
55409;SDS011;41279;43.546;16.426;2022-12-07T08:11:57;7.35;;;4.00;;
55409;SDS011;41279;43.546;16.426;2022-12-07T08:14:22;9.93;;;4.68;;
55409;SDS011;41279;43.546;16.426;2022-12-07T08:16:48;11.15;;;4.53;;
55409;SDS011;41279;43.546;16.426;2022-12-07T08:19:19;13.30;;;5.13;;
55409;SDS011;41279;43.546;16.426;2022-12-07T08:21:45;9.55;;;5.10;;
55409;SDS011;41279;43.546;16.426;2022-12-07T08:24:10;9.90;;;4.80;;
55409;SDS011;41279;43.546;16.426;2022-12-07T08:26:36;7.18;;;4.60;;
55409;SDS011;41279;43.546;16.426;2022-12-07T08:29:02;11.13;;;4.70;;
55409;SDS011;41279;43.546;16.426;2022-12-07T08:31:34;11.18;;;4.95;;
55409;SDS011;41279;43.546;16.426;2022-12-07T08:34:00;12.82;;;5.43;;
55409;SDS011;41279;43.546;16.426;2022-12-07T08:36:25;13.35;;;6.45;;
55409;SDS011;41279;43.546;16.426;2022-12-07T08:38:51;11.95;;;4.88;;
55409;SDS011;41279;43.546;16.426;2022-12-07T08:41:16;11.95;;;5.40;;
55409;SDS011;41279;43.546;16.426;2022-12-07T08:43:42;14.63;;;5.60;;
55409;SDS011;41279;43.546;16.426;2022-12-07T08:48:50;12.77;;;5.82;;
55409;SDS011;41279;43.546;16.426;2022-12-07T08:51:19;14.00;;;6.32;;
55409;SDS011;41279;43.546;16.426;2022-12-07T08:53:46;15.80;;;7.00;;
55409;SDS011;41279;43.546;16.426;2022-12-07T08:56:12;14.27;;;6.70;;
55409;SDS011;41279;43.546;16.426;2022-12-07T08:58:38;20.02;;;7.35;;
55409;SDS011;41279;43.546;16.426;2022-12-07T09:01:04;14.48;;;7.43;;
55409;SDS011;41279;43.546;16.426;2022-12-07T09:03:30;16.23;;;7.45;;
55409;SDS011;41279;43.546;16.426;2022-12-07T09:05:56;12.73;;;6.78;;
55409;SDS011;41279;43.546;16.426;2022-12-07T09:08:22;13.38;;;6.00;;
55409;SDS011;41279;43.546;16.426;2022-12-07T09:10:54;10.90;;;4.85;;
55409;SDS011;41279;43.546;16.426;2022-12-07T09:13:19;11.18;;;4.70;;
55409;SDS011;41279;43.546;16.426;2022-12-07T09:15:45;10.35;;;4.90;;
55409;SDS011;41279;43.546;16.426;2022-12-07T09:18:10;9.88;;;4.05;;
55409;SDS011;41279;43.546;16.426;2022-12-07T09:20:35;7.22;;;3.67;;
55409;SDS011;41279;43.546;16.426;2022-12-07T09:23:01;10.25;;;3.80;;
55409;SDS011;41279;43.546;16.426;2022-12-07T09:25:26;14.10;;;5.20;;
55409;SDS011;41279;43.546;16.426;2022-12-07T09:27:55;7.90;;;4.03;;
55409;SDS011;41279;43.546;16.426;2022-12-07T09:30:21;9.07;;;3.72;;
55409;SDS011;41279;43.546;16.426;2022-12-07T09:32:46;8.75;;;3.58;;
55409;SDS011;41279;43.546;16.426;2022-12-07T09:35:12;9.48;;;4.47;;
55409;SDS011;41279;43.546;16.426;2022-12-07T09:37:37;8.68;;;3.85;;
55409;SDS011;41279;43.546;16.426;2022-12-07T09:40:03;9.25;;;4.20;;
55409;SDS011;41279;43.546;16.426;2022-12-07T09:42:33;9.02;;;4.75;;
55409;SDS011;41279;43.546;16.426;2022-12-07T09:45:02;10.07;;;6.05;;
55409;SDS011;41279;43.546;16.426;2022-12-07T09:47:30;13.40;;;7.10;;
55409;SDS011;41279;43.546;16.426;2022-12-07T09:49:59;13.20;;;7.57;;
55409;SDS011;41279;43.546;16.426;2022-12-07T09:54:55;9.55;;;4.38;;
55409;SDS011;41279;43.546;16.426;2022-12-07T09:57:25;7.15;;;3.80;;
55409;SDS011;41279;43.546;16.426;2022-12-07T09:59:55;6.32;;;3.60;;
55409;SDS011;41279;43.546;16.426;2022-12-07T10:02:33;8.02;;;4.45;;
55409;SDS011;41279;43.546;16.426;2022-12-07T10:05:01;0.57;;;0.57;;
55409;SDS011;41279;43.546;16.426;2022-12-07T10:07:29;0.75;;;0.75;;
55409;SDS011;41279;43.546;16.426;2022-12-07T10:09:54;0.88;;;0.57;;
55409;SDS011;41279;43.546;16.426;2022-12-07T10:12:20;0.57;;;0.57;;
55409;SDS011;41279;43.546;16.426;2022-12-07T10:14:55;0.90;;;0.90;;
55409;SDS011;41279;43.546;16.426;2022-12-07T10:19:50;0.45;;;0.45;;
55409;SDS011;41279;43.546;16.426;2022-12-07T10:22:16;1.80;;;1.42;;
55409;SDS011;41279;43.546;16.426;2022-12-07T10:24:42;9.13;;;0.95;;
55409;SDS011;41279;43.546;16.426;2022-12-07T10:29:43;0.60;;;0.60;;
55409;SDS011;41279;43.546;16.426;2022-12-07T10:34:39;0.60;;;0.60;;
55409;SDS011;41279;43.546;16.426;2022-12-07T10:39:43;1.70;;;1.00;;
55409;SDS011;41279;43.546;16.426;2022-12-07T10:42:20;12.23;;;2.55;;
55409;SDS011;41279;43.546;16.426;2022-12-07T10:44:48;1.10;;;1.08;;
55409;SDS011;41279;43.546;16.426;2022-12-07T10:52:55;0.63;;;0.63;;
55409;SDS011;41279;43.546;16.426;2022-12-07T10:55:41;0.30;;;0.30;;
55409;SDS011;41279;43.546;16.426;2022-12-07T11:00:56;1.98;;;1.67;;
55409;SDS011;41279;43.546;16.426;2022-12-07T11:03:40;0.88;;;0.88;;
55409;SDS011;41279;43.546;16.426;2022-12-07T11:09:00;0.40;;;0.40;;
55409;SDS011;41279;43.546;16.426;2022-12-07T11:11:38;0.57;;;0.57;;
55409;SDS011;41279;43.546;16.426;2022-12-07T11:25:29;1.00;;;0.95;;
55409;SDS011;41279;43.546;16.426;2022-12-07T11:28:03;1.10;;;1.02;;
55409;SDS011;41279;43.546;16.426;2022-12-07T11:33:16;0.22;;;0.22;;
55409;SDS011;41279;43.546;16.426;2022-12-07T11:38:52;0.40;;;0.40;;
55409;SDS011;41279;43.546;16.426;2022-12-07T11:41:22;0.85;;;0.85;;
55409;SDS011;41279;43.546;16.426;2022-12-07T11:43:54;0.30;;;0.30;;
55409;SDS011;41279;43.546;16.426;2022-12-07T11:46:27;0.73;;;0.73;;
55409;SDS011;41279;43.546;16.426;2022-12-07T11:49:08;0.75;;;0.73;;
55409;SDS011;41279;43.546;16.426;2022-12-07T11:51:39;0.85;;;0.60;;
55409;SDS011;41279;43.546;16.426;2022-12-07T11:54:27;0.40;;;0.40;;
55409;SDS011;41279;43.546;16.426;2022-12-07T11:56:59;0.63;;;0.63;;
55409;SDS011;41279;43.546;16.426;2022-12-07T11:59:38;2.40;;;0.98;;
55409;SDS011;41279;43.546;16.426;2022-12-07T12:02:13;0.77;;;0.77;;
55409;SDS011;41279;43.546;16.426;2022-12-07T12:04:47;0.75;;;0.75;;
55409;SDS011;41279;43.546;16.426;2022-12-07T12:07:23;0.88;;;0.75;;
55409;SDS011;41279;43.546;16.426;2022-12-07T12:09:55;2.65;;;2.25;;
55409;SDS011;41279;43.546;16.426;2022-12-07T12:12:42;0.45;;;0.45;;
55409;SDS011;41279;43.546;16.426;2022-12-07T12:15:31;0.77;;;0.63;;
55409;SDS011;41279;43.546;16.426;2022-12-07T12:20:49;0.47;;;0.47;;
55409;SDS011;41279;43.546;16.426;2022-12-07T12:25:43;1.20;;;1.10;;
55409;SDS011;41279;43.546;16.426;2022-12-07T12:28:49;0.65;;;0.65;;
55409;SDS011;41279;43.546;16.426;2022-12-07T12:31:07;4.18;;;0.95;;
55409;SDS011;41279;43.546;16.426;2022-12-07T12:33:45;0.63;;;0.63;;
55409;SDS011;41279;43.546;16.426;2022-12-07T12:46:59;0.30;;;0.30;;
55409;SDS011;41279;43.546;16.426;2022-12-07T12:49:34;0.52;;;0.52;;
55409;SDS011;41279;43.546;16.426;2022-12-07T12:54:38;0.63;;;0.60;;
55409;SDS011;41279;43.546;16.426;2022-12-07T12:57:29;1.33;;;1.23;;
55409;SDS011;41279;43.546;16.426;2022-12-07T13:03:04;0.50;;;0.50;;
55409;SDS011;41279;43.546;16.426;2022-12-07T13:05:22;2.88;;;2.15;;
55409;SDS011;41279;43.546;16.426;2022-12-07T13:08:02;0.85;;;0.85;;
55409;SDS011;41279;43.546;16.426;2022-12-07T13:10:41;0.40;;;0.40;;
55409;SDS011;41279;43.546;16.426;2022-12-07T13:15:44;0.30;;;0.30;;
55409;SDS011;41279;43.546;16.426;2022-12-07T13:26:17;0.73;;;0.73;;
55409;SDS011;41279;43.546;16.426;2022-12-07T13:28:47;0.63;;;0.57;;
55409;SDS011;41279;43.546;16.426;2022-12-07T13:33:52;0.40;;;0.40;;
55409;SDS011;41279;43.546;16.426;2022-12-07T13:36:21;0.38;;;0.38;;
55409;SDS011;41279;43.546;16.426;2022-12-07T13:38:56;0.45;;;0.45;;
55409;SDS011;41279;43.546;16.426;2022-12-07T13:41:28;0.77;;;0.77;;
55409;SDS011;41279;43.546;16.426;2022-12-07T13:49:36;1.17;;;1.05;;
55409;SDS011;41279;43.546;16.426;2022-12-07T13:52:23;0.38;;;0.38;;
55409;SDS011;41279;43.546;16.426;2022-12-07T13:54:57;0.95;;;0.95;;
55409;SDS011;41279;43.546;16.426;2022-12-07T13:57:31;0.50;;;0.50;;
55409;SDS011;41279;43.546;16.426;2022-12-07T14:00:00;0.85;;;0.85;;
55409;SDS011;41279;43.546;16.426;2022-12-07T14:02:33;0.50;;;0.50;;
55409;SDS011;41279;43.546;16.426;2022-12-07T14:05:12;0.40;;;0.40;;
55409;SDS011;41279;43.546;16.426;2022-12-07T14:08:05;2.05;;;1.08;;
55409;SDS011;41279;43.546;16.426;2022-12-07T14:13:31;0.50;;;0.50;;
55409;SDS011;41279;43.546;16.426;2022-12-07T14:16:05;0.40;;;0.40;;
55409;SDS011;41279;43.546;16.426;2022-12-07T14:18:57;1.48;;;1.38;;
55409;SDS011;41279;43.546;16.426;2022-12-07T14:21:25;0.75;;;0.75;;
55409;SDS011;41279;43.546;16.426;2022-12-07T14:26:40;0.30;;;0.30;;
55409;SDS011;41279;43.546;16.426;2022-12-07T14:29:19;0.80;;;0.80;;
55409;SDS011;41279;43.546;16.426;2022-12-07T14:31:51;0.50;;;0.50;;
55409;SDS011;41279;43.546;16.426;2022-12-07T14:34:19;0.35;;;0.35;;
55409;SDS011;41279;43.546;16.426;2022-12-07T14:36:53;0.55;;;0.55;;
55409;SDS011;41279;43.546;16.426;2022-12-07T14:39:18;0.28;;;0.28;;
55409;SDS011;41279;43.546;16.426;2022-12-07T14:41:51;1.40;;;1.30;;
55409;SDS011;41279;43.546;16.426;2022-12-07T14:44:23;0.70;;;0.70;;
55409;SDS011;41279;43.546;16.426;2022-12-07T14:46:49;1.20;;;1.10;;
55409;SDS011;41279;43.546;16.426;2022-12-07T14:49:15;0.77;;;0.73;;
55409;SDS011;41279;43.546;16.426;2022-12-07T14:51:41;0.60;;;0.60;;
55409;SDS011;41279;43.546;16.426;2022-12-07T14:54:09;4.00;;;0.88;;
55409;SDS011;41279;43.546;16.426;2022-12-07T14:56:40;0.60;;;0.60;;
55409;SDS011;41279;43.546;16.426;2022-12-07T14:59:06;0.82;;;0.70;;
55409;SDS011;41279;43.546;16.426;2022-12-07T15:01:32;1.25;;;1.15;;
55409;SDS011;41279;43.546;16.426;2022-12-07T15:03:57;0.50;;;0.50;;
55409;SDS011;41279;43.546;16.426;2022-12-07T15:06:23;0.75;;;0.75;;
55409;SDS011;41279;43.546;16.426;2022-12-07T15:08:48;1.05;;;0.98;;
55409;SDS011;41279;43.546;16.426;2022-12-07T15:11:15;2.28;;;2.08;;
55409;SDS011;41279;43.546;16.426;2022-12-07T15:13:41;3.42;;;2.22;;
55409;SDS011;41279;43.546;16.426;2022-12-07T15:16:25;3.22;;;2.50;;
55409;SDS011;41279;43.546;16.426;2022-12-07T15:18:51;15.88;;;3.55;;
55409;SDS011;41279;43.546;16.426;2022-12-07T15:21:16;3.00;;;2.47;;
55409;SDS011;41279;43.546;16.426;2022-12-07T15:23:42;3.30;;;2.03;;
55409;SDS011;41279;43.546;16.426;2022-12-07T15:26:09;1.48;;;1.38;;
55409;SDS011;41279;43.546;16.426;2022-12-07T15:28:35;1.45;;;1.35;;
55409;SDS011;41279;43.546;16.426;2022-12-07T15:31:00;2.10;;;1.73;;
55409;SDS011;41279;43.546;16.426;2022-12-07T15:33:26;1.23;;;1.13;;
55409;SDS011;41279;43.546;16.426;2022-12-07T15:35:51;3.50;;;2.28;;
55409;SDS011;41279;43.546;16.426;2022-12-07T15:38:16;2.55;;;2.28;;
55409;SDS011;41279;43.546;16.426;2022-12-07T15:40:42;19.02;;;10.40;;
55409;SDS011;41279;43.546;16.426;2022-12-07T15:43:08;19.23;;;12.15;;
55409;SDS011;41279;43.546;16.426;2022-12-07T15:45:54;29.08;;;15.02;;
55409;SDS011;41279;43.546;16.426;2022-12-07T15:48:19;26.67;;;14.63;;
55409;SDS011;41279;43.546;16.426;2022-12-07T15:50:45;28.25;;;15.68;;
55409;SDS011;41279;43.546;16.426;2022-12-07T15:53:10;25.80;;;14.52;;
55409;SDS011;41279;43.546;16.426;2022-12-07T15:55:38;24.75;;;14.23;;
55409;SDS011;41279;43.546;16.426;2022-12-07T15:58:04;28.15;;;15.45;;
55409;SDS011;41279;43.546;16.426;2022-12-07T16:00:29;38.88;;;17.77;;
55409;SDS011;41279;43.546;16.426;2022-12-07T16:02:54;23.48;;;13.60;;
55409;SDS011;41279;43.546;16.426;2022-12-07T16:05:20;41.03;;;23.67;;
55409;SDS011;41279;43.546;16.426;2022-12-07T16:07:45;37.15;;;19.30;;
55409;SDS011;41279;43.546;16.426;2022-12-07T16:10:12;34.95;;;19.20;;
55409;SDS011;41279;43.546;16.426;2022-12-07T16:12:37;34.08;;;19.08;;
55409;SDS011;41279;43.546;16.426;2022-12-07T16:15:03;31.58;;;16.60;;
55409;SDS011;41279;43.546;16.426;2022-12-07T16:17:29;28.60;;;15.15;;
55409;SDS011;41279;43.546;16.426;2022-12-07T16:19:54;18.73;;;9.65;;
55409;SDS011;41279;43.546;16.426;2022-12-07T16:22:19;16.83;;;8.70;;
55409;SDS011;41279;43.546;16.426;2022-12-07T16:24:45;20.35;;;9.70;;
55409;SDS011;41279;43.546;16.426;2022-12-07T16:27:10;18.83;;;10.27;;
55409;SDS011;41279;43.546;16.426;2022-12-07T16:29:36;19.80;;;11.30;;
55409;SDS011;41279;43.546;16.426;2022-12-07T16:32:01;27.52;;;14.80;;
55409;SDS011;41279;43.546;16.426;2022-12-07T16:34:27;52.90;;;28.55;;
55409;SDS011;41279;43.546;16.426;2022-12-07T16:36:52;17.98;;;10.00;;
55409;SDS011;41279;43.546;16.426;2022-12-07T16:39:17;18.33;;;8.45;;
55409;SDS011;41279;43.546;16.426;2022-12-07T16:41:43;16.48;;;8.23;;
55409;SDS011;41279;43.546;16.426;2022-12-07T16:44:09;15.65;;;8.88;;